sensor_id;sensor_type;location;lat;lon;timestamp;pressure;altitude;pressure_sealevel;temperature;humidity
67345;BME280;54230;52.402;6.276;2022-09-21T00:00:00;102700.0;;;8.8;81.4
67345;BME280;54230;52.402;6.276;2022-09-21T00:05:00;102700.0;;;8.7;81.4
67345;BME280;54230;52.402;6.276;2022-09-21T00:10:00;102700.0;;;8.7;81.0
67345;BME280;54230;52.402;6.276;2022-09-21T00:15:00;102700.0;;;8.6;81.9
67345;BME280;54230;52.402;6.276;2022-09-21T00:20:00;102700.0;;;8.6;81.6
67345;BME280;54230;52.402;6.276;2022-09-21T00:25:00;102700.0;;;8.6;81.2
67345;BME280;54230;52.402;6.276;2022-09-21T00:30:01;102700.0;;;8.5;81.4
67345;BME280;54230;52.402;6.276;2022-09-21T00:35:00;102700.0;;;8.5;81.2
67345;BME280;54230;52.402;6.276;2022-09-21T00:40:00;102700.0;;;8.5;81.3
67345;BME280;54230;52.402;6.276;2022-09-21T00:45:00;102709.99999999999;;;8.4;81.3
67345;BME280;54230;52.402;6.276;2022-09-21T00:50:02;102700.0;;;8.3;81.8
67345;BME280;54230;52.402;6.276;2022-09-21T00:55:05;102709.99999999999;;;8.2;81.7
67345;BME280;54230;52.402;6.276;2022-09-21T01:00:02;102709.99999999999;;;8.2;82.0
67345;BME280;54230;52.402;6.276;2022-09-21T01:05:02;102709.99999999999;;;8.1;82.0
67345;BME280;54230;52.402;6.276;2022-09-21T01:10:02;102709.99999999999;;;8.1;82.0
67345;BME280;54230;52.402;6.276;2022-09-21T01:15:11;102700.0;;;8.0;81.9
67345;BME280;54230;52.402;6.276;2022-09-21T01:20:17;102690.00000000001;;;7.9;81.8
67345;BME280;54230;52.402;6.276;2022-09-21T01:25:08;102709.99999999999;;;7.9;81.8
67345;BME280;54230;52.402;6.276;2022-09-21T01:30:02;102709.99999999999;;;7.9;81.4
67345;BME280;54230;52.402;6.276;2022-09-21T01:35:02;102709.99999999999;;;7.8;81.7
67345;BME280;54230;52.402;6.276;2022-09-21T01:40:05;102700.0;;;7.7;81.8
67345;BME280;54230;52.402;6.276;2022-09-21T01:45:02;102700.0;;;7.7;82.1
67345;BME280;54230;52.402;6.276;2022-09-21T01:50:02;102700.0;;;7.7;82.1
67345;BME280;54230;52.402;6.276;2022-09-21T01:55:07;102700.0;;;7.6;82.2
67345;BME280;54230;52.402;6.276;2022-09-21T02:00:00;102709.99999999999;;;7.6;81.9
67345;BME280;54230;52.402;6.276;2022-09-21T02:05:01;102700.0;;;7.6;82.0
67345;BME280;54230;52.402;6.276;2022-09-21T02:10:01;102709.99999999999;;;7.5;82.5
67345;BME280;54230;52.402;6.276;2022-09-21T02:15:01;102709.99999999999;;;7.5;82.5
67345;BME280;54230;52.402;6.276;2022-09-21T02:20:06;102700.0;;;7.4;81.4
67345;BME280;54230;52.402;6.276;2022-09-21T02:25:06;102709.99999999999;;;7.3;81.4
67345;BME280;54230;52.402;6.276;2022-09-21T02:30:04;102700.0;;;7.2;82.0
67345;BME280;54230;52.402;6.276;2022-09-21T02:35:02;102700.0;;;7.2;81.6
67345;BME280;54230;52.402;6.276;2022-09-21T02:40:05;102709.99999999999;;;7.1;81.2
67345;BME280;54230;52.402;6.276;2022-09-21T02:45:04;102709.99999999999;;;7.0;81.2
67345;BME280;54230;52.402;6.276;2022-09-21T02:50:03;102700.0;;;6.9;81.6
67345;BME280;54230;52.402;6.276;2022-09-21T02:55:00;102700.0;;;6.9;81.6
67345;BME280;54230;52.402;6.276;2022-09-21T03:00:00;102700.0;;;6.9;81.8
67345;BME280;54230;52.402;6.276;2022-09-21T03:05:00;102700.0;;;6.9;81.7
67345;BME280;54230;52.402;6.276;2022-09-21T03:10:00;102700.0;;;6.8;81.7
67345;BME280;54230;52.402;6.276;2022-09-21T03:15:00;102700.0;;;6.8;81.7
67345;BME280;54230;52.402;6.276;2022-09-21T03:20:00;102690.00000000001;;;6.8;82.1
67345;BME280;54230;52.402;6.276;2022-09-21T03:25:00;102700.0;;;6.8;81.9
67345;BME280;54230;52.402;6.276;2022-09-21T03:30:00;102700.0;;;6.7;82.6
67345;BME280;54230;52.402;6.276;2022-09-21T03:35:00;102700.0;;;6.7;83.3
67345;BME280;54230;52.402;6.276;2022-09-21T03:40:00;102709.99999999999;;;6.7;83.0
67345;BME280;54230;52.402;6.276;2022-09-21T03:45:00;102709.99999999999;;;6.7;82.6
67345;BME280;54230;52.402;6.276;2022-09-21T03:50:00;102720.0;;;6.6;83.0
67345;BME280;54230;52.402;6.276;2022-09-21T03:55:00;102720.0;;;6.6;83.7
67345;BME280;54230;52.402;6.276;2022-09-21T04:00:00;102709.99999999999;;;6.5;83.6
67345;BME280;54230;52.402;6.276;2022-09-21T04:05:00;102720.0;;;6.5;83.6
67345;BME280;54230;52.402;6.276;2022-09-21T04:10:00;102720.0;;;6.5;83.6
67345;BME280;54230;52.402;6.276;2022-09-21T04:15:00;102709.99999999999;;;6.4;83.3
67345;BME280;54230;52.402;6.276;2022-09-21T04:20:00;102709.99999999999;;;6.3;83.1
67345;BME280;54230;52.402;6.276;2022-09-21T04:25:00;102709.99999999999;;;6.3;83.6
67345;BME280;54230;52.402;6.276;2022-09-21T04:30:00;102709.99999999999;;;6.2;83.5
67345;BME280;54230;52.402;6.276;2022-09-21T04:35:00;102720.0;;;6.2;83.1
67345;BME280;54230;52.402;6.276;2022-09-21T04:40:00;102720.0;;;6.2;83.0
67345;BME280;54230;52.402;6.276;2022-09-21T04:45:00;102720.0;;;6.1;82.7
67345;BME280;54230;52.402;6.276;2022-09-21T04:50:00;102720.0;;;6.0;83.0
67345;BME280;54230;52.402;6.276;2022-09-21T04:55:00;102730.0;;;6.0;83.1
67345;BME280;54230;52.402;6.276;2022-09-21T05:00:00;102730.0;;;6.0;82.7
67345;BME280;54230;52.402;6.276;2022-09-21T05:05:00;102730.0;;;6.0;83.1
67345;BME280;54230;52.402;6.276;2022-09-21T05:10:00;102730.0;;;5.9;83.3
67345;BME280;54230;52.402;6.276;2022-09-21T05:15:00;102740.00000000001;;;5.9;83.1
67345;BME280;54230;52.402;6.276;2022-09-21T05:20:00;102740.00000000001;;;5.9;83.0
67345;BME280;54230;52.402;6.276;2022-09-21T05:25:00;102750.0;;;5.8;83.2
67345;BME280;54230;52.402;6.276;2022-09-21T05:30:00;102750.0;;;5.9;83.0
67345;BME280;54230;52.402;6.276;2022-09-21T05:35:05;102759.99999999999;;;5.9;83.0
67345;BME280;54230;52.402;6.276;2022-09-21T05:40:00;102759.99999999999;;;5.9;83.3
67345;BME280;54230;52.402;6.276;2022-09-21T05:45:00;102750.0;;;5.9;83.3
67345;BME280;54230;52.402;6.276;2022-09-21T05:50:05;102759.99999999999;;;6.0;82.7
67345;BME280;54230;52.402;6.276;2022-09-21T05:55:04;102770.0;;;6.0;83.4
67345;BME280;54230;52.402;6.276;2022-09-21T06:00:06;102770.0;;;6.1;84.3
67345;BME280;54230;52.402;6.276;2022-09-21T06:05:01;102750.0;;;6.1;84.6
67345;BME280;54230;52.402;6.276;2022-09-21T06:10:00;102780.0;;;6.3;85.3
67345;BME280;54230;52.402;6.276;2022-09-21T06:15:00;102780.0;;;6.3;85.9
67345;BME280;54230;52.402;6.276;2022-09-21T06:20:00;102780.0;;;6.4;86.1
67345;BME280;54230;52.402;6.276;2022-09-21T06:25:00;102790.00000000001;;;6.5;86.3
67345;BME280;54230;52.402;6.276;2022-09-21T06:30:00;102790.00000000001;;;6.6;86.9
67345;BME280;54230;52.402;6.276;2022-09-21T06:35:00;102790.00000000001;;;6.7;87.5
67345;BME280;54230;52.402;6.276;2022-09-21T06:40:00;102780.0;;;6.7;87.9
67345;BME280;54230;52.402;6.276;2022-09-21T06:45:00;102790.00000000001;;;6.8;88.1
67345;BME280;54230;52.402;6.276;2022-09-21T06:50:00;102780.0;;;7.0;88.2
67345;BME280;54230;52.402;6.276;2022-09-21T06:55:00;102790.00000000001;;;7.2;88.3
67345;BME280;54230;52.402;6.276;2022-09-21T07:00:00;102780.0;;;7.4;88.4
67345;BME280;54230;52.402;6.276;2022-09-21T07:05:00;102780.0;;;7.7;87.7
67345;BME280;54230;52.402;6.276;2022-09-21T07:10:00;102790.00000000001;;;7.9;87.9
67345;BME280;54230;52.402;6.276;2022-09-21T07:15:00;102790.00000000001;;;8.1;88.4
67345;BME280;54230;52.402;6.276;2022-09-21T07:20:01;102790.00000000001;;;8.3;89.1
67345;BME280;54230;52.402;6.276;2022-09-21T07:25:00;102790.00000000001;;;8.6;88.4
67345;BME280;54230;52.402;6.276;2022-09-21T07:30:00;102800.0;;;8.8;87.9
67345;BME280;54230;52.402;6.276;2022-09-21T07:35:00;102790.00000000001;;;9.1;88.4
67345;BME280;54230;52.402;6.276;2022-09-21T07:40:00;102790.00000000001;;;9.3;89.0
67345;BME280;54230;52.402;6.276;2022-09-21T07:45:00;102790.00000000001;;;9.6;88.7
67345;BME280;54230;52.402;6.276;2022-09-21T07:50:00;102790.00000000001;;;9.8;88.7
67345;BME280;54230;52.402;6.276;2022-09-21T07:55:00;102790.00000000001;;;10.0;88.1
67345;BME280;54230;52.402;6.276;2022-09-21T08:00:00;102790.00000000001;;;10.2;88.0
67345;BME280;54230;52.402;6.276;2022-09-21T08:05:00;102790.00000000001;;;10.5;87.5
67345;BME280;54230;52.402;6.276;2022-09-21T08:10:00;102790.00000000001;;;10.6;86.4
67345;BME280;54230;52.402;6.276;2022-09-21T08:15:00;102790.00000000001;;;10.7;86.0
67345;BME280;54230;52.402;6.276;2022-09-21T08:20:00;102800.0;;;10.9;86.1
67345;BME280;54230;52.402;6.276;2022-09-21T08:25:00;102800.0;;;11.0;85.9
67345;BME280;54230;52.402;6.276;2022-09-21T08:30:00;102800.0;;;11.2;85.2
67345;BME280;54230;52.402;6.276;2022-09-21T08:35:00;102800.0;;;11.5;84.3
67345;BME280;54230;52.402;6.276;2022-09-21T08:40:00;102800.0;;;11.7;82.9
67345;BME280;54230;52.402;6.276;2022-09-21T08:45:01;102809.99999999999;;;11.9;82.2
67345;BME280;54230;52.402;6.276;2022-09-21T08:50:00;102809.99999999999;;;12.1;81.5
67345;BME280;54230;52.402;6.276;2022-09-21T08:55:02;102809.99999999999;;;12.4;80.3
67345;BME280;54230;52.402;6.276;2022-09-21T09:00:01;102809.99999999999;;;12.7;78.8
67345;BME280;54230;52.402;6.276;2022-09-21T09:05:02;102809.99999999999;;;12.9;77.9
67345;BME280;54230;52.402;6.276;2022-09-21T09:10:06;102820.0;;;13.2;76.9
67345;BME280;54230;52.402;6.276;2022-09-21T09:15:09;102809.99999999999;;;13.4;74.9
67345;BME280;54230;52.402;6.276;2022-09-21T09:20:02;102820.0;;;13.7;74.4
67345;BME280;54230;52.402;6.276;2022-09-21T09:25:03;102820.0;;;13.9;72.9
67345;BME280;54230;52.402;6.276;2022-09-21T09:30:03;102820.0;;;14.1;71.9
67345;BME280;54230;52.402;6.276;2022-09-21T09:35:04;102820.0;;;14.2;71.1
67345;BME280;54230;52.402;6.276;2022-09-21T09:40:00;102820.0;;;14.4;70.3
67345;BME280;54230;52.402;6.276;2022-09-21T09:45:15;102820.0;;;14.6;70.0
67345;BME280;54230;52.402;6.276;2022-09-21T09:50:04;102820.0;;;14.7;68.7
67345;BME280;54230;52.402;6.276;2022-09-21T09:55:11;102820.0;;;14.9;66.0
67345;BME280;54230;52.402;6.276;2022-09-21T10:00:03;102820.0;;;15.3;65.9
67345;BME280;54230;52.402;6.276;2022-09-21T10:05:02;102820.0;;;15.7;64.3
67345;BME280;54230;52.402;6.276;2022-09-21T10:10:00;102800.0;;;15.8;63.9
67345;BME280;54230;52.402;6.276;2022-09-21T10:15:00;102809.99999999999;;;16.0;63.2
67345;BME280;54230;52.402;6.276;2022-09-21T10:20:01;102800.0;;;16.0;63.2
67345;BME280;54230;52.402;6.276;2022-09-21T10:25:00;102800.0;;;16.5;61.5
67345;BME280;54230;52.402;6.276;2022-09-21T10:30:00;102780.0;;;16.1;60.2
67345;BME280;54230;52.402;6.276;2022-09-21T10:35:12;102790.00000000001;;;16.4;60.9
67345;BME280;54230;52.402;6.276;2022-09-21T10:40:00;102790.00000000001;;;17.1;58.9
67345;BME280;54230;52.402;6.276;2022-09-21T10:45:12;102790.00000000001;;;17.3;56.2
67345;BME280;54230;52.402;6.276;2022-09-21T10:50:01;102800.0;;;16.7;56.5
67345;BME280;54230;52.402;6.276;2022-09-21T10:55:00;102800.0;;;17.5;54.5
67345;BME280;54230;52.402;6.276;2022-09-21T11:00:16;102800.0;;;17.8;54.1
67345;BME280;54230;52.402;6.276;2022-09-21T11:05:04;102790.00000000001;;;17.5;55.0
67345;BME280;54230;52.402;6.276;2022-09-21T11:10:05;102790.00000000001;;;17.1;56.1
67345;BME280;54230;52.402;6.276;2022-09-21T11:15:07;102790.00000000001;;;17.4;54.3
67345;BME280;54230;52.402;6.276;2022-09-21T11:20:05;102780.0;;;17.3;53.5
67345;BME280;54230;52.402;6.276;2022-09-21T11:25:09;102780.0;;;16.9;53.8
67345;BME280;54230;52.402;6.276;2022-09-21T11:30:02;102780.0;;;17.0;54.8
67345;BME280;54230;52.402;6.276;2022-09-21T11:35:08;102780.0;;;17.0;54.5
67345;BME280;54230;52.402;6.276;2022-09-21T11:40:09;102770.0;;;16.3;55.8
67345;BME280;54230;52.402;6.276;2022-09-21T11:45:01;102770.0;;;16.5;57.2
67345;BME280;54230;52.402;6.276;2022-09-21T11:50:09;102750.0;;;16.5;57.4
67345;BME280;54230;52.402;6.276;2022-09-21T11:55:06;102770.0;;;16.6;57.0
67345;BME280;54230;52.402;6.276;2022-09-21T12:00:09;102759.99999999999;;;16.6;55.2
67345;BME280;54230;52.402;6.276;2022-09-21T12:05:05;102750.0;;;16.6;55.0
67345;BME280;54230;52.402;6.276;2022-09-21T12:10:10;102750.0;;;16.6;55.9
67345;BME280;54230;52.402;6.276;2022-09-21T12:15:07;102750.0;;;16.4;55.8
67345;BME280;54230;52.402;6.276;2022-09-21T12:20:04;102740.00000000001;;;16.2;56.5
67345;BME280;54230;52.402;6.276;2022-09-21T12:25:03;102740.00000000001;;;16.0;57.1
67345;BME280;54230;52.402;6.276;2022-09-21T12:30:02;102740.00000000001;;;16.2;56.2
67345;BME280;54230;52.402;6.276;2022-09-21T12:35:03;102740.00000000001;;;16.9;53.6
67345;BME280;54230;52.402;6.276;2022-09-21T12:40:05;102730.0;;;17.2;52.3
67345;BME280;54230;52.402;6.276;2022-09-21T12:45:03;102730.0;;;16.9;51.9
67345;BME280;54230;52.402;6.276;2022-09-21T12:50:04;102720.0;;;16.9;53.6
67345;BME280;54230;52.402;6.276;2022-09-21T12:55:03;102720.0;;;17.8;50.3
67345;BME280;54230;52.402;6.276;2022-09-21T13:00:03;102709.99999999999;;;18.2;49.2
67345;BME280;54230;52.402;6.276;2022-09-21T13:05:06;102700.0;;;18.7;46.2
67345;BME280;54230;52.402;6.276;2022-09-21T13:10:06;102700.0;;;19.1;45.5
67345;BME280;54230;52.402;6.276;2022-09-21T13:15:02;102700.0;;;19.1;45.0
67345;BME280;54230;52.402;6.276;2022-09-21T13:20:02;102700.0;;;18.4;47.7
67345;BME280;54230;52.402;6.276;2022-09-21T13:25:02;102690.00000000001;;;18.9;47.3
67345;BME280;54230;52.402;6.276;2022-09-21T13:30:18;102690.00000000001;;;19.4;45.7
67345;BME280;54230;52.402;6.276;2022-09-21T13:45:01;102690.00000000001;;;18.6;47.1
67345;BME280;54230;52.402;6.276;2022-09-21T13:50:01;102680.0;;;18.6;46.6
67345;BME280;54230;52.402;6.276;2022-09-21T13:55:02;102680.0;;;18.4;46.7
67345;BME280;54230;52.402;6.276;2022-09-21T14:00:11;102680.0;;;18.5;46.0
67345;BME280;54230;52.402;6.276;2022-09-21T14:05:03;102650.0;;;18.5;45.6
67345;BME280;54230;52.402;6.276;2022-09-21T14:10:02;102670.0;;;18.4;45.8
67345;BME280;54230;52.402;6.276;2022-09-21T14:15:29;102659.99999999999;;;18.2;46.6
67345;BME280;54230;52.402;6.276;2022-09-21T14:20:00;102659.99999999999;;;18.5;46.4
67345;BME280;54230;52.402;6.276;2022-09-21T14:30:03;102650.0;;;18.2;50.8
67345;BME280;54230;52.402;6.276;2022-09-21T14:35:04;102650.0;;;17.9;51.3
67345;BME280;54230;52.402;6.276;2022-09-21T14:40:05;102650.0;;;17.9;50.4
67345;BME280;54230;52.402;6.276;2022-09-21T14:45:01;102650.0;;;17.7;50.9
67345;BME280;54230;52.402;6.276;2022-09-21T14:50:20;102640.00000000001;;;17.5;50.1
67345;BME280;54230;52.402;6.276;2022-09-21T14:55:06;102640.00000000001;;;17.6;50.1
67345;BME280;54230;52.402;6.276;2022-09-21T15:00:13;102640.00000000001;;;17.2;53.1
67345;BME280;54230;52.402;6.276;2022-09-21T15:05:11;102640.00000000001;;;17.1;56.1
67345;BME280;54230;52.402;6.276;2022-09-21T15:10:18;102630.0;;;17.0;56.0
67345;BME280;54230;52.402;6.276;2022-09-21T15:15:11;102630.0;;;17.2;55.9
67345;BME280;54230;52.402;6.276;2022-09-21T15:20:14;102630.0;;;17.2;54.8
67345;BME280;54230;52.402;6.276;2022-09-21T15:25:02;102609.99999999999;;;17.7;52.0
67345;BME280;54230;52.402;6.276;2022-09-21T15:30:04;102620.0;;;18.8;50.0
67345;BME280;54230;52.402;6.276;2022-09-21T15:35:01;102600.0;;;19.5;46.8
67345;BME280;54230;52.402;6.276;2022-09-21T15:40:00;102609.99999999999;;;20.3;43.4
67345;BME280;54230;52.402;6.276;2022-09-21T15:45:13;102609.99999999999;;;21.5;41.9
67345;BME280;54230;52.402;6.276;2022-09-21T15:50:00;102609.99999999999;;;22.4;40.7
67345;BME280;54230;52.402;6.276;2022-09-21T15:55:04;102600.0;;;23.0;39.6
67345;BME280;54230;52.402;6.276;2022-09-21T16:00:01;102600.0;;;23.6;37.8
67345;BME280;54230;52.402;6.276;2022-09-21T16:05:00;102590.00000000001;;;24.0;36.0
67345;BME280;54230;52.402;6.276;2022-09-21T16:10:00;102600.0;;;24.2;35.2
67345;BME280;54230;52.402;6.276;2022-09-21T16:15:04;102600.0;;;24.4;36.2
67345;BME280;54230;52.402;6.276;2022-09-21T16:20:10;102580.0;;;24.4;36.3
67345;BME280;54230;52.402;6.276;2022-09-21T16:25:00;102600.0;;;24.1;37.7
67345;BME280;54230;52.402;6.276;2022-09-21T16:30:00;102600.0;;;24.1;37.7
67345;BME280;54230;52.402;6.276;2022-09-21T16:35:20;102590.00000000001;;;23.9;39.1
67345;BME280;54230;52.402;6.276;2022-09-21T16:40:00;102590.00000000001;;;23.2;39.0
67345;BME280;54230;52.402;6.276;2022-09-21T16:45:01;102590.00000000001;;;22.1;40.8
67345;BME280;54230;52.402;6.276;2022-09-21T16:50:00;102590.00000000001;;;21.1;43.1
67345;BME280;54230;52.402;6.276;2022-09-21T16:55:00;102600.0;;;20.3;45.9
67345;BME280;54230;52.402;6.276;2022-09-21T17:00:00;102600.0;;;19.5;48.5
67345;BME280;54230;52.402;6.276;2022-09-21T17:05:00;102600.0;;;18.9;49.5
67345;BME280;54230;52.402;6.276;2022-09-21T17:10:00;102590.00000000001;;;18.3;52.2
67345;BME280;54230;52.402;6.276;2022-09-21T17:15:00;102590.00000000001;;;17.8;52.1
67345;BME280;54230;52.402;6.276;2022-09-21T17:20:01;102590.00000000001;;;17.4;54.2
67345;BME280;54230;52.402;6.276;2022-09-21T17:25:00;102600.0;;;16.9;55.9
67345;BME280;54230;52.402;6.276;2022-09-21T17:30:00;102600.0;;;16.4;58.4
67345;BME280;54230;52.402;6.276;2022-09-21T17:35:13;102600.0;;;16.1;58.5
67345;BME280;54230;52.402;6.276;2022-09-21T17:40:00;102590.00000000001;;;15.8;59.9
67345;BME280;54230;52.402;6.276;2022-09-21T17:45:04;102590.00000000001;;;15.5;60.6
67345;BME280;54230;52.402;6.276;2022-09-21T17:50:13;102600.0;;;15.3;61.8
67345;BME280;54230;52.402;6.276;2022-09-21T17:55:01;102600.0;;;15.1;62.4
67345;BME280;54230;52.402;6.276;2022-09-21T18:00:03;102590.00000000001;;;14.9;63.2
67345;BME280;54230;52.402;6.276;2022-09-21T18:05:03;102600.0;;;14.7;63.9
67345;BME280;54230;52.402;6.276;2022-09-21T18:10:00;102600.0;;;14.5;64.8
67345;BME280;54230;52.402;6.276;2022-09-21T18:15:04;102600.0;;;14.3;66.0
67345;BME280;54230;52.402;6.276;2022-09-21T18:20:05;102600.0;;;14.1;66.5
67345;BME280;54230;52.402;6.276;2022-09-21T18:25:05;102600.0;;;14.0;66.6
67345;BME280;54230;52.402;6.276;2022-09-21T18:30:00;102609.99999999999;;;13.9;67.1
67345;BME280;54230;52.402;6.276;2022-09-21T18:35:12;102600.0;;;13.7;67.0
67345;BME280;54230;52.402;6.276;2022-09-21T18:40:07;102600.0;;;13.7;67.5
67345;BME280;54230;52.402;6.276;2022-09-21T18:45:02;102600.0;;;13.6;67.7
67345;BME280;54230;52.402;6.276;2022-09-21T18:50:04;102600.0;;;13.4;68.4
67345;BME280;54230;52.402;6.276;2022-09-21T18:55:00;102609.99999999999;;;13.3;69.0
67345;BME280;54230;52.402;6.276;2022-09-21T19:00:00;102609.99999999999;;;13.1;69.5
67345;BME280;54230;52.402;6.276;2022-09-21T19:05:00;102609.99999999999;;;13.0;69.7
67345;BME280;54230;52.402;6.276;2022-09-21T19:10:06;102620.0;;;12.9;70.2
67345;BME280;54230;52.402;6.276;2022-09-21T19:15:10;102620.0;;;12.7;70.4
67345;BME280;54230;52.402;6.276;2022-09-21T19:20:11;102620.0;;;12.6;70.8
67345;BME280;54230;52.402;6.276;2022-09-21T19:25:03;102620.0;;;12.5;70.8
67345;BME280;54230;52.402;6.276;2022-09-21T19:30:05;102620.0;;;12.4;71.1
67345;BME280;54230;52.402;6.276;2022-09-21T19:35:14;102620.0;;;12.4;71.6
67345;BME280;54230;52.402;6.276;2022-09-21T19:40:00;102620.0;;;12.3;71.9
67345;BME280;54230;52.402;6.276;2022-09-21T19:45:04;102630.0;;;12.2;72.2
67345;BME280;54230;52.402;6.276;2022-09-21T19:50:11;102630.0;;;12.1;72.7
67345;BME280;54230;52.402;6.276;2022-09-21T19:55:00;102600.0;;;11.8;72.8
67345;BME280;54230;52.402;6.276;2022-09-21T20:00:00;102620.0;;;11.9;73.1
67345;BME280;54230;52.402;6.276;2022-09-21T20:05:03;102620.0;;;11.8;73.5
67345;BME280;54230;52.402;6.276;2022-09-21T20:10:15;102609.99999999999;;;11.7;74.0
67345;BME280;54230;52.402;6.276;2022-09-21T20:15:03;102609.99999999999;;;11.7;74.1
67345;BME280;54230;52.402;6.276;2022-09-21T20:20:05;102620.0;;;11.6;73.9
67345;BME280;54230;52.402;6.276;2022-09-21T20:25:02;102630.0;;;11.6;74.0
67345;BME280;54230;52.402;6.276;2022-09-21T20:30:00;102630.0;;;11.4;74.1
67345;BME280;54230;52.402;6.276;2022-09-21T20:35:00;102620.0;;;11.4;75.1
67345;BME280;54230;52.402;6.276;2022-09-21T20:40:00;102620.0;;;11.3;75.0
67345;BME280;54230;52.402;6.276;2022-09-21T20:45:00;102620.0;;;11.2;74.9
67345;BME280;54230;52.402;6.276;2022-09-21T20:50:00;102620.0;;;11.2;74.8
67345;BME280;54230;52.402;6.276;2022-09-21T20:55:00;102620.0;;;11.0;74.7
67345;BME280;54230;52.402;6.276;2022-09-21T21:00:00;102609.99999999999;;;10.9;75.2
67345;BME280;54230;52.402;6.276;2022-09-21T21:05:00;102620.0;;;10.7;75.3
67345;BME280;54230;52.402;6.276;2022-09-21T21:10:00;102620.0;;;10.6;75.6
67345;BME280;54230;52.402;6.276;2022-09-21T21:15:00;102620.0;;;10.4;77.0
67345;BME280;54230;52.402;6.276;2022-09-21T21:20:00;102620.0;;;10.4;77.5
67345;BME280;54230;52.402;6.276;2022-09-21T21:25:00;102620.0;;;10.4;77.7
67345;BME280;54230;52.402;6.276;2022-09-21T21:30:00;102620.0;;;10.3;77.6
67345;BME280;54230;52.402;6.276;2022-09-21T21:35:00;102630.0;;;10.4;77.6
67345;BME280;54230;52.402;6.276;2022-09-21T21:40:00;102620.0;;;10.3;77.8
67345;BME280;54230;52.402;6.276;2022-09-21T21:45:00;102630.0;;;10.3;77.7
67345;BME280;54230;52.402;6.276;2022-09-21T21:50:00;102620.0;;;10.2;77.8
67345;BME280;54230;52.402;6.276;2022-09-21T21:55:00;102609.99999999999;;;10.2;77.5
67345;BME280;54230;52.402;6.276;2022-09-21T22:00:00;102609.99999999999;;;10.1;77.6
67345;BME280;54230;52.402;6.276;2022-09-21T22:05:00;102609.99999999999;;;10.1;77.6
67345;BME280;54230;52.402;6.276;2022-09-21T22:10:00;102609.99999999999;;;10.0;77.7
67345;BME280;54230;52.402;6.276;2022-09-21T22:15:00;102600.0;;;9.9;77.8
67345;BME280;54230;52.402;6.276;2022-09-21T22:20:00;102600.0;;;9.8;78.1
67345;BME280;54230;52.402;6.276;2022-09-21T22:25:00;102600.0;;;9.7;77.9
67345;BME280;54230;52.402;6.276;2022-09-21T22:30:00;102600.0;;;9.6;77.4
67345;BME280;54230;52.402;6.276;2022-09-21T22:35:00;102609.99999999999;;;9.5;77.2
67345;BME280;54230;52.402;6.276;2022-09-21T22:40:00;102609.99999999999;;;9.4;77.9
67345;BME280;54230;52.402;6.276;2022-09-21T22:45:00;102609.99999999999;;;9.2;77.5
67345;BME280;54230;52.402;6.276;2022-09-21T22:50:00;102620.0;;;9.0;77.5
67345;BME280;54230;52.402;6.276;2022-09-21T22:55:00;102620.0;;;8.9;77.4
67345;BME280;54230;52.402;6.276;2022-09-21T23:00:00;102609.99999999999;;;8.8;78.1
67345;BME280;54230;52.402;6.276;2022-09-21T23:05:00;102609.99999999999;;;8.8;78.5
67345;BME280;54230;52.402;6.276;2022-09-21T23:10:00;102609.99999999999;;;8.8;78.6
67345;BME280;54230;52.402;6.276;2022-09-21T23:15:00;102600.0;;;8.8;78.9
67345;BME280;54230;52.402;6.276;2022-09-21T23:20:00;102600.0;;;8.8;79.4
67345;BME280;54230;52.402;6.276;2022-09-21T23:25:00;102600.0;;;8.8;79.0
67345;BME280;54230;52.402;6.276;2022-09-21T23:30:00;102600.0;;;8.8;78.6
67345;BME280;54230;52.402;6.276;2022-09-21T23:35:00;102600.0;;;8.7;78.5
67345;BME280;54230;52.402;6.276;2022-09-21T23:40:00;102600.0;;;8.7;78.1
67345;BME280;54230;52.402;6.276;2022-09-21T23:45:00;102600.0;;;8.6;78.0
67345;BME280;54230;52.402;6.276;2022-09-21T23:50:00;102600.0;;;8.5;78.2
67345;BME280;54230;52.402;6.276;2022-09-21T23:55:00;102590.00000000001;;;8.3;78.7
